Airfield :
LOGIN :

Register | Disclaimer

   EN    FR    IT 

 










Legend :    VFR   Marginal VFR   IFR   Intensive IFR   Very Intensive IFR
Visi :
Ceiling :
>= 8 km
>= 3000ft
5 to 8 km
1000 to 3000 ft
1500m to 5 km
500 to 1000 ft
800 to 1500m
200 to 500 ft
< 800m
< 200 ft
Symbols :   Thunderstorms  Fog  Heavy snow  Heavy precipitations  Wind > 20 kt
SIGMETs :     Misc.  Thunderstorms  Icing  Turbulence  Mountain Waves  Volcanic Ashes







- Airport Elevation : 359 ft
- IATA code : BVA
- Download approach charts


LFOB - Beauvais

CURRENT METAR :
  • 170530Z AUTO 19009KT 9999 FEW031 OVC060 18/13 Q1015 NOSIG

EXPIRED METARs :
  • 170500Z AUTO 19008KT 170V230 9999 FEW029 BKN037 OVC044 18/13 Q1016 TEMPO 4000 RA BKN013 OVC050
  • 170430Z AUTO 18007KT 140V210 9999 OVC041 18/13 Q1016 TEMPO 4000 RA BKN013 OVC050
  • 170400Z AUTO 16006KT 9999 BKN046 BKN056 OVC068 17/13 Q1016 NOSIG
  • 170330Z AUTO 16006KT CAVOK 17/13 Q1016 NOSIG
  • 170300Z AUTO 16006KT CAVOK 17/13 Q1016 NOSIG

TAF TAF LFOB
Valid from the 17 at 06:00 until the 18 at 06:00 UTC


170500Z 1706/1806 20010KT 9999 BKN030
TEMPO 1709/1806 3000 SHRA BKN013
ATIS : +33 3 44 11 49 28
No reported NOTAMs for that airfield.



MET'MAP, your aeronautical weather chart ! - Copyright ORBIFLY December 2007 - Disclaimer

ORBIFLY MET'MAP TEAM :

Programming & Development : Alexandra Zaïnal
Concept & Development : Baudouin d'Aumeries
Co-Development & Prog : Marc-Olivier Méhu
Technical & hardware support : Manuel Goepfert

Contact : metmap@orbifly.com




SOURCES & CREDITS :

   NOAA